Time,TemperatureF,DewpointF,PressureIn,WindDirection,WindDirectionDegrees,WindSpeedMPH,WindSpeedGustMPH,Humidity,HourlyPrecipIn,Conditions,Clouds,dailyrainin,SolarRadiationWatts/m^2,SoftwareType,DateUTC
2013-07-07 00:04:00,53.5,50.0,29.76,SSW,211,2.3,0.0,88,0.00,OVC,,0.00,0.0,WeatherDisplay:10.37,2013-07-07 07:04:00,
2013-07-07 00:09:00,53.5,50.0,29.76,SSW,211,0.0,0.0,88,0.00,OVC,,0.00,0.0,WeatherDisplay:10.37,2013-07-07 07:09:00,
2013-07-07 00:14:00,53.6,50.1,29.76,SSE,165,4.6,4.6,88,0.00,OVC,,0.00,0.0,WeatherDisplay:10.37,2013-07-07 07:14:00,
2013-07-07 00:19:00,53.5,50.0,29.76,SE,146,3.5,3.5,88,0.00,OVC,,0.00,0.0,WeatherDisplay:10.37,2013-07-07 07:19:00,
2013-07-07 00:24:00,53.6,50.1,29.76,SSE,147,3.5,3.5,88,0.00,OVC,,0.00,0.0,WeatherDisplay:10.37,2013-07-07 07:24:00,
2013-07-07 00:29:00,53.7,50.2,29.76,SE,146,1.2,0.0,88,0.00,OVC,,0.00,0.0,WeatherDisplay:10.37,2013-07-07 07:29:00,
2013-07-07 00:34:00,53.7,50.2,29.76,SSE,147,0.0,0.0,88,0.00,OVC,,0.00,0.0,WeatherDisplay:10.37,2013-07-07 07:34:00,
2013-07-07 00:39:00,53.7,50.2,29.76,SSE,167,3.5,3.5,88,0.00,OVC,,0.00,0.0,WeatherDisplay:10.37,2013-07-07 07:39:00,
2013-07-07 00:44:00,53.7,50.2,29.76,SSW,201,3.5,3.5,88,0.00,OVC,,0.00,0.0,WeatherDisplay:10.37,2013-07-07 07:44:00,
2013-07-07 00:49:00,53.6,50.1,29.76,SSW,207,3.5,3.5,88,0.00,OVC,,0.00,0.0,WeatherDisplay:10.37,2013-07-07 07:49:00,
2013-07-07 00:54:00,53.6,50.1,29.76,SSW,206,3.5,3.5,88,0.00,OVC,,0.00,0.0,WeatherDisplay:10.37,2013-07-07 07:54:00,
2013-07-07 00:59:00,53.5,50.0,29.76,SSW,207,3.5,3.5,88,0.00,OVC,,0.00,0.0,WeatherDisplay:10.37,2013-07-07 07:59:00,
2013-07-07 01:04:00,53.5,50.0,29.76,SSW,207,1.2,1.2,88,0.00,OVC,,0.00,0.0,WeatherDisplay:10.37,2013-07-07 08:04:00,
2013-07-07 01:09:00,53.5,50.0,29.76,SSW,208,3.5,3.5,88,0.00,OVC,,0.00,0.0,WeatherDisplay:10.37,2013-07-07 08:09:00,
2013-07-07 01:14:00,53.3,49.8,29.76,SSW,206,3.5,3.5,88,0.00,OVC,,0.00,0.0,WeatherDisplay:10.37,2013-07-07 08:14:00,
2013-07-07 01:19:00,53.2,49.7,29.76,South,191,3.5,3.5,88,0.00,OVC,,0.00,0.0,WeatherDisplay:10.37,2013-07-07 08:19:00,
2013-07-07 01:24:00,53.1,49.6,29.76,South,191,0.0,0.0,88,0.00,OVC,,0.00,0.0,WeatherDisplay:10.37,2013-07-07 08:24:00,
2013-07-07 01:29:00,53.1,49.6,29.76,South,191,2.3,0.0,88,0.00,OVC,,0.00,0.0,WeatherDisplay:10.37,2013-07-07 08:29:00,
2013-07-07 01:34:00,53.1,49.6,29.76,South,191,0.0,0.0,88,0.00,OVC,,0.00,0.0,WeatherDisplay:10.37,2013-07-07 08:34:00,
2013-07-07 01:39:00,53.1,49.6,29.76,SSW,193,1.2,0.0,88,0.00,OVC,,0.00,0.0,WeatherDisplay:10.37,2013-07-07 08:39:00,
2013-07-07 01:44:00,53.0,49.5,29.76,SSW,192,4.6,4.6,88,0.00,OVC,,0.00,0.0,WeatherDisplay:10.37,2013-07-07 08:44:00,
2013-07-07 01:49:00,52.9,49.4,29.76,SSW,207,0.0,0.0,88,0.00,OVC,,0.00,0.0,WeatherDisplay:10.37,2013-07-07 08:49:00,
2013-07-07 01:54:00,52.8,49.3,29.76,SSW,207,0.0,0.0,88,0.00,OVC,,0.00,0.0,WeatherDisplay:10.37,2013-07-07 08:54:00,
2013-07-07 01:59:00,52.7,49.2,29.77,SSW,206,0.0,0.1,88,0.00,OVC,,0.00,0.0,WeatherDisplay:10.37,2013-07-07 08:59:00,
2013-07-07 02:05:00,52.7,49.5,29.76,SSW,205,0.0,0.0,89,0.00,OVC,,0.00,0.0,WeatherDisplay:10.37,2013-07-07 09:05:00,
2013-07-07 02:10:00,52.7,49.5,29.76,South,174,2.0,2.0,89,0.00,OVC,,0.00,0.0,WeatherDisplay:10.37,2013-07-07 09:10:00,
2013-07-07 02:15:00,52.7,49.5,29.76,South,172,2.0,3.1,89,0.00,OVC,,0.00,0.0,WeatherDisplay:10.37,2013-07-07 09:15:00,
2013-07-07 02:20:00,52.7,49.5,29.76,South,171,0.0,0.0,89,0.00,OVC,,0.00,0.0,WeatherDisplay:10.37,2013-07-07 09:20:00,
2013-07-07 02:25:00,52.8,49.6,29.76,South,172,1.2,0.0,89,0.00,OVC,,0.00,0.0,WeatherDisplay:10.37,2013-07-07 09:25:00,
2013-07-07 02:30:00,52.8,49.6,29.76,South,172,2.3,0.0,89,0.00,OVC,,0.00,0.0,WeatherDisplay:10.37,2013-07-07 09:30:00,
2013-07-07 02:35:00,52.8,49.6,29.76,SSW,200,4.6,4.6,89,0.00,OVC,,0.00,0.0,WeatherDisplay:10.37,2013-07-07 09:35:00,
2013-07-07 02:40:00,52.7,49.5,29.76,SSW,211,3.5,3.5,89,0.00,OVC,,0.00,0.0,WeatherDisplay:10.37,2013-07-07 09:40:00,
2013-07-07 02:45:00,52.7,49.5,29.76,SSW,211,2.3,0.0,89,0.00,OVC,,0.00,0.0,WeatherDisplay:10.37,2013-07-07 09:45:00,
2013-07-07 02:50:00,52.7,49.5,29.76,SSW,211,0.0,0.0,89,0.00,OVC,,0.00,0.0,WeatherDisplay:10.37,2013-07-07 09:50:00,
2013-07-07 02:55:00,52.7,49.5,29.76,SSW,211,0.0,0.0,89,0.00,OVC,,0.00,0.0,WeatherDisplay:10.37,2013-07-07 09:55:00,
2013-07-07 03:00:00,52.8,49.6,29.76,SW,223,4.6,4.6,89,0.00,OVC,,0.00,0.0,WeatherDisplay:10.37,2013-07-07 10:00:00,
2013-07-07 03:05:00,52.6,49.4,29.76,SW,223,0.0,0.0,89,0.00,OVC,,0.00,0.0,WeatherDisplay:10.37,2013-07-07 10:05:00,
2013-07-07 03:10:00,52.7,49.5,29.76,SW,223,2.3,2.3,89,0.00,OVC,,0.00,0.0,WeatherDisplay:10.37,2013-07-07 10:10:00,
2013-07-07 03:15:00,52.8,49.6,29.76,SW,223,2.3,2.3,89,0.00,OVC,,0.00,0.0,WeatherDisplay:10.37,2013-07-07 10:15:00,
2013-07-07 03:20:00,52.7,49.5,29.76,SW,221,3.5,3.5,89,0.00,OVC,,0.00,0.0,WeatherDisplay:10.37,2013-07-07 10:20:00,
2013-07-07 03:25:00,52.7,49.5,29.76,SW,221,1.0,0.0,89,0.00,OVC,,0.00,0.0,WeatherDisplay:10.37,2013-07-07 10:25:00,
2013-07-07 03:30:00,52.7,49.5,29.76,SE,129,0.0,0.0,89,0.00,OVC,,0.00,0.0,WeatherDisplay:10.37,2013-07-07 10:30:00,
2013-07-07 03:35:00,52.7,49.5,29.76,SE,129,0.0,0.0,89,0.00,OVC,,0.00,0.0,WeatherDisplay:10.37,2013-07-07 10:35:00,
2013-07-07 03:40:00,52.7,49.5,29.76,SE,128,3.5,3.5,89,0.00,OVC,,0.00,0.0,WeatherDisplay:10.37,2013-07-07 10:40:00,
2013-07-07 03:45:00,52.8,49.6,29.76,SE,129,0.0,0.0,89,0.00,OVC,,0.00,0.0,WeatherDisplay:10.37,2013-07-07 10:45:00,
2013-07-07 03:50:00,52.9,49.7,29.76,SSE,153,1.2,0.0,89,0.00,OVC,,0.00,0.0,WeatherDisplay:10.37,2013-07-07 10:50:00,
2013-07-07 03:55:00,52.9,49.7,29.76,SSE,154,2.3,2.3,89,0.00,OVC,,0.00,0.0,WeatherDisplay:10.37,2013-07-07 10:55:00,
2013-07-07 04:00:00,52.9,49.7,29.76,SSE,154,2.3,2.3,89,0.00,OVC,,0.00,0.0,WeatherDisplay:10.37,2013-07-07 11:00:00,
2013-07-07 04:05:00,52.9,49.7,29.76,SSW,200,3.5,3.5,89,0.00,OVC,,0.00,0.0,WeatherDisplay:10.37,2013-07-07 11:05:00,
2013-07-07 04:11:00,52.8,49.6,29.76,SSW,205,0.0,0.0,89,0.00,OVC,,0.00,0.0,WeatherDisplay:10.37,2013-07-07 11:11:00,
2013-07-07 04:16:00,52.8,49.6,29.76,SSW,205,0.0,0.0,89,0.00,OVC,,0.00,0.0,WeatherDisplay:10.37,2013-07-07 11:16:00,
2013-07-07 04:21:00,52.8,49.6,29.77,SSW,205,0.0,0.0,89,0.00,OVC,,0.00,0.0,WeatherDisplay:10.37,2013-07-07 11:21:00,
2013-07-07 04:26:00,52.8,49.6,29.77,SSW,203,0.0,0.0,89,0.00,OVC,,0.00,0.0,WeatherDisplay:10.37,2013-07-07 11:26:00,
2013-07-07 04:31:00,52.9,49.7,29.76,SSW,203,0.0,0.0,89,0.00,OVC,,0.00,0.0,WeatherDisplay:10.37,2013-07-07 11:31:00,
2013-07-07 04:36:00,53.0,49.8,29.76,SSW,204,0.0,0.0,89,0.00,OVC,,0.00,0.0,WeatherDisplay:10.37,2013-07-07 11:36:00,
2013-07-07 04:41:00,53.0,49.8,29.76,SSW,205,0.0,0.0,89,0.00,OVC,,0.00,0.0,WeatherDisplay:10.37,2013-07-07 11:41:00,
2013-07-07 04:46:00,53.0,49.8,29.77,SSW,205,0.0,0.0,89,0.00,OVC,,0.00,0.0,WeatherDisplay:10.37,2013-07-07 11:46:00,
2013-07-07 04:51:00,53.0,49.8,29.77,SSW,207,3.5,3.5,89,0.00,OVC,,0.00,0.0,WeatherDisplay:10.37,2013-07-07 11:51:00,
2013-07-07 04:56:00,53.0,49.8,29.77,SSW,207,1.2,1.2,89,0.00,OVC,,0.00,0.0,WeatherDisplay:10.37,2013-07-07 11:56:00,
2013-07-07 05:01:00,53.1,49.9,29.77,SW,230,3.5,3.5,89,0.00,OVC,,0.00,0.0,WeatherDisplay:10.37,2013-07-07 12:01:00,
2013-07-07 05:06:00,53.0,49.8,29.77,SW,236,1.2,0.0,89,0.00,OVC,,0.00,0.0,WeatherDisplay:10.37,2013-07-07 12:06:00,
2013-07-07 05:11:00,53.0,49.8,29.77,WSW,237,0.0,0.0,89,0.00,OVC,,0.00,0.0,WeatherDisplay:10.37,2013-07-07 12:11:00,
2013-07-07 05:16:00,52.9,49.7,29.77,WSW,237,3.5,3.5,89,0.00,OVC,,0.00,0.0,WeatherDisplay:10.37,2013-07-07 12:16:00,
2013-07-07 05:21:00,52.9,49.7,29.77,WSW,237,0.0,0.0,89,0.00,OVC,,0.00,0.0,WeatherDisplay:10.37,2013-07-07 12:21:00,
2013-07-07 05:26:00,52.9,49.7,29.77,WSW,238,0.0,0.0,89,0.00,OVC,,0.00,0.0,WeatherDisplay:10.37,2013-07-07 12:26:00,
2013-07-07 05:31:00,52.9,49.7,29.77,WSW,238,0.0,0.0,89,0.00,OVC,,0.00,0.0,WeatherDisplay:10.37,2013-07-07 12:31:00,
2013-07-07 05:36:00,53.0,49.8,29.77,WSW,238,3.5,0.0,89,0.00,OVC,,0.00,0.0,WeatherDisplay:10.37,2013-07-07 12:36:00,
2013-07-07 05:41:00,53.0,49.8,29.77,WSW,237,3.5,3.5,89,0.00,OVC,,0.00,0.0,WeatherDisplay:10.37,2013-07-07 12:41:00,
2013-07-07 05:46:00,53.0,49.8,29.77,SW,229,1.2,0.0,89,0.00,OVC,,0.00,0.0,WeatherDisplay:10.37,2013-07-07 12:46:00,
2013-07-07 05:52:00,53.0,49.8,29.78,WSW,241,3.5,3.5,89,0.00,OVC,,0.00,0.0,WeatherDisplay:10.37,2013-07-07 12:52:00,
2013-07-07 05:57:00,52.9,49.7,29.78,WSW,244,0.0,0.0,89,0.00,OVC,,0.00,0.0,WeatherDisplay:10.37,2013-07-07 12:57:00,
2013-07-07 06:02:00,52.9,49.7,29.78,WSW,244,0.0,0.0,89,0.00,OVC,,0.00,0.0,WeatherDisplay:10.37,2013-07-07 13:02:00,
2013-07-07 06:07:00,52.9,49.7,29.78,WSW,244,0.0,0.0,89,0.00,OVC,,0.00,0.0,WeatherDisplay:10.37,2013-07-07 13:07:00,
2013-07-07 06:12:00,52.9,49.7,29.78,WSW,240,3.5,3.5,89,0.00,OVC,,0.00,0.0,WeatherDisplay:10.37,2013-07-07 13:12:00,
2013-07-07 06:17:00,52.8,49.6,29.79,WSW,240,0.0,0.0,89,0.00,OVC,,0.00,5.0,WeatherDisplay:10.37,2013-07-07 13:17:00,
2013-07-07 06:22:00,52.9,49.7,29.79,WSW,240,2.3,2.3,89,0.00,OVC,,0.00,7.0,WeatherDisplay:10.37,2013-07-07 13:22:00,
2013-07-07 06:27:00,52.8,49.6,29.79,WSW,240,0.0,0.0,89,0.00,OVC,,0.00,11.0,WeatherDisplay:10.37,2013-07-07 13:27:00,
2013-07-07 06:32:00,52.9,49.7,29.79,WSW,244,0.0,0.0,89,0.00,OVC,,0.00,12.0,WeatherDisplay:10.37,2013-07-07 13:32:00,
2013-07-07 06:37:00,52.9,49.7,29.79,WSW,244,0.0,0.0,89,0.00,OVC,,0.00,14.0,WeatherDisplay:10.37,2013-07-07 13:37:00,
2013-07-07 06:42:00,52.9,49.7,29.79,WSW,244,0.0,0.0,89,0.00,OVC,,0.00,18.0,WeatherDisplay:10.37,2013-07-07 13:42:00,
2013-07-07 06:47:00,52.9,49.7,29.79,SW,218,0.0,0.0,89,0.00,OVC,,0.00,19.0,WeatherDisplay:10.37,2013-07-07 13:47:00,
2013-07-07 06:52:00,53.0,50.1,29.79,SW,218,3.5,3.5,90,0.00,OVC,,0.00,21.0,WeatherDisplay:10.37,2013-07-07 13:52:00,
2013-07-07 06:57:00,53.0,50.1,29.79,SW,216,3.5,3.5,90,0.00,OVC,,0.00,21.0,WeatherDisplay:10.37,2013-07-07 13:57:00,
2013-07-07 07:02:00,53.1,49.9,29.79,SW,223,5.8,5.8,89,0.00,OVC,,0.00,25.0,WeatherDisplay:10.37,2013-07-07 14:02:00,
2013-07-07 07:07:00,53.1,49.9,29.79,SW,222,3.5,3.5,89,0.00,OVC,,0.00,28.0,WeatherDisplay:10.37,2013-07-07 14:07:00,
2013-07-07 07:12:00,53.1,49.9,29.79,SW,222,0.0,0.0,89,0.00,OVC,,0.00,32.0,WeatherDisplay:10.37,2013-07-07 14:12:00,
2013-07-07 07:17:00,53.2,50.0,29.80,SW,222,0.0,0.0,89,0.00,OVC,,0.00,35.0,WeatherDisplay:10.37,2013-07-07 14:17:00,
2013-07-07 07:22:00,53.2,50.0,29.80,SW,222,0.0,0.0,89,0.00,OVC,,0.00,40.0,WeatherDisplay:10.37,2013-07-07 14:22:00,
2013-07-07 07:23:00,53.2,50.0,29.80,SW,222,0.0,0.0,89,0.00,OVC,,0.00,40.0,WeatherDisplay:10.37,2013-07-07 14:23:00,
2013-07-07 07:28:00,53.3,50.1,29.80,SW,222,0.0,0.0,89,0.00,OVC,,0.00,40.0,WeatherDisplay:10.37,2013-07-07 14:28:00,
2013-07-07 07:33:00,53.3,50.1,29.80,SW,217,3.5,3.5,89,0.00,OVC,,0.00,42.0,WeatherDisplay:10.37,2013-07-07 14:33:00,
2013-07-07 07:38:00,53.3,50.1,29.80,SW,217,3.5,3.5,89,0.00,OVC,,0.00,46.0,WeatherDisplay:10.37,2013-07-07 14:38:00,
2013-07-07 07:43:00,53.2,50.0,29.80,SSW,205,2.0,2.0,89,0.00,OVC,,0.00,53.0,WeatherDisplay:10.37,2013-07-07 14:43:00,
2013-07-07 07:48:00,53.1,49.9,29.80,SSW,205,0.0,0.0,89,0.00,OVC,,0.00,58.0,WeatherDisplay:10.37,2013-07-07 14:48:00,
2013-07-07 07:53:00,53.1,49.9,29.81,SSW,205,1.2,0.0,89,0.00,OVC,,0.00,63.0,WeatherDisplay:10.37,2013-07-07 14:53:00,
2013-07-07 07:58:00,53.1,49.9,29.81,SSE,153,3.5,3.5,89,0.00,OVC,,0.00,70.0,WeatherDisplay:10.37,2013-07-07 14:58:00,
2013-07-07 08:03:00,53.2,50.0,29.81,SSE,150,0.0,0.0,89,0.00,OVC,,0.00,76.0,WeatherDisplay:10.37,2013-07-07 15:03:00,
2013-07-07 08:08:00,53.3,50.1,29.81,SSE,149,0.0,0.0,89,0.00,OVC,,0.00,81.0,WeatherDisplay:10.37,2013-07-07 15:08:00,
2013-07-07 08:13:00,53.5,50.3,29.81,SSE,150,0.0,0.0,89,0.00,OVC,,0.00,83.0,WeatherDisplay:10.37,2013-07-07 15:13:00,
2013-07-07 08:18:00,53.6,50.4,29.81,SSE,150,0.0,0.0,89,0.00,OVC,,0.00,86.0,WeatherDisplay:10.37,2013-07-07 15:18:00,
2013-07-07 08:23:00,53.7,50.5,29.81,SSW,196,3.5,3.5,89,0.00,OVC,,0.00,90.0,WeatherDisplay:10.37,2013-07-07 15:23:00,
2013-07-07 08:28:00,53.8,50.6,29.81,SW,223,3.5,3.5,89,0.00,OVC,,0.00,91.0,WeatherDisplay:10.37,2013-07-07 15:28:00,
2013-07-07 08:33:00,53.9,50.7,29.81,SW,215,3.5,3.5,89,0.00,OVC,,0.00,95.0,WeatherDisplay:10.37,2013-07-07 15:33:00,
2013-07-07 08:38:00,53.8,50.6,29.81,SSW,211,4.6,4.6,89,0.00,OVC,,0.00,100.0,WeatherDisplay:10.37,2013-07-07 15:38:00,
2013-07-07 08:43:00,53.8,50.6,29.81,SSW,213,1.2,0.0,89,0.00,OVC,,0.00,111.0,WeatherDisplay:10.37,2013-07-07 15:43:00,
2013-07-07 08:48:00,53.9,50.4,29.82,SSW,213,3.5,3.5,88,0.00,OVC,,0.00,121.0,WeatherDisplay:10.37,2013-07-07 15:48:00,
2013-07-07 08:53:00,53.9,50.4,29.82,SSW,213,1.2,0.0,88,0.00,OVC,,0.00,130.0,WeatherDisplay:10.37,2013-07-07 15:53:00,
2013-07-07 08:58:00,54.0,50.5,29.82,SSW,213,0.0,0.0,88,0.00,OVC,,0.00,141.0,WeatherDisplay:10.37,2013-07-07 15:58:00,
2013-07-07 09:03:00,54.2,50.7,29.82,SSW,213,2.3,0.0,88,0.00,OVC,,0.00,146.0,WeatherDisplay:10.37,2013-07-07 16:03:00,
2013-07-07 09:08:00,54.5,51.0,29.82,SSW,212,2.0,2.0,88,0.00,OVC,,0.00,146.0,WeatherDisplay:10.37,2013-07-07 16:08:00,
2013-07-07 09:13:00,54.8,51.3,29.82,SSW,210,1.2,0.0,88,0.00,OVC,,0.00,144.0,WeatherDisplay:10.37,2013-07-07 16:13:00,
2013-07-07 09:18:00,54.9,51.1,29.82,WSW,252,3.5,3.5,87,0.00,OVC,,0.00,153.0,WeatherDisplay:10.37,2013-07-07 16:18:00,
2013-07-07 09:23:00,54.8,51.0,29.82,WSW,252,3.5,0.0,87,0.00,OVC,,0.00,171.0,WeatherDisplay:10.37,2013-07-07 16:23:00,
2013-07-07 09:29:00,54.9,51.1,29.82,WSW,252,0.0,0.0,87,0.00,OVC,,0.00,190.0,WeatherDisplay:10.37,2013-07-07 16:29:00,
2013-07-07 09:34:00,55.2,51.4,29.82,WSW,252,2.3,2.3,87,0.00,OVC,,0.00,206.0,WeatherDisplay:10.37,2013-07-07 16:34:00,
2013-07-07 09:39:00,55.5,51.4,29.82,South,180,1.2,0.0,86,0.00,OVC,,0.00,218.0,WeatherDisplay:10.37,2013-07-07 16:39:00,
2013-07-07 09:44:00,55.7,51.6,29.82,South,180,3.5,3.5,86,0.00,OVC,,0.00,225.0,WeatherDisplay:10.37,2013-07-07 16:44:00,
2013-07-07 09:49:00,55.9,51.5,29.81,South,179,0.0,0.0,85,0.00,OVC,,0.00,237.0,WeatherDisplay:10.37,2013-07-07 16:49:00,
2013-07-07 09:54:00,56.1,51.7,29.82,South,180,3.5,3.5,85,0.00,OVC,,0.00,243.0,WeatherDisplay:10.37,2013-07-07 16:54:00,
2013-07-07 09:59:00,56.3,51.5,29.82,South,174,2.3,2.3,84,0.00,OVC,,0.00,257.0,WeatherDisplay:10.37,2013-07-07 16:59:00,
2013-07-07 10:04:00,56.4,51.6,29.81,South,174,3.5,3.5,84,0.00,OVC,,0.00,276.0,WeatherDisplay:10.37,2013-07-07 17:04:00,
2013-07-07 10:09:00,56.7,51.9,29.82,South,175,2.3,2.3,84,0.00,OVC,,0.00,292.0,WeatherDisplay:10.37,2013-07-07 17:09:00,
2013-07-07 10:14:00,56.9,51.8,29.82,South,173,0.0,0.1,83,0.00,OVC,,0.00,297.0,WeatherDisplay:10.37,2013-07-07 17:14:00,
2013-07-07 10:19:00,57.0,51.9,29.82,NE,46,3.5,3.5,83,0.00,OVC,,0.00,323.0,WeatherDisplay:10.37,2013-07-07 17:19:00,
2013-07-07 10:24:00,57.1,52.0,29.82,NE,46,0.0,0.0,83,0.00,OVC,,0.00,346.0,WeatherDisplay:10.37,2013-07-07 17:24:00,
2013-07-07 10:29:00,57.5,52.0,29.82,NE,46,1.2,0.0,82,0.00,OVC,,0.00,376.0,WeatherDisplay:10.37,2013-07-07 17:29:00,
2013-07-07 10:34:00,57.7,52.2,29.82,ENE,77,3.5,3.5,82,0.00,OVC,,0.00,417.0,WeatherDisplay:10.37,2013-07-07 17:34:00,
2013-07-07 10:39:00,58.2,52.4,29.81,SSW,213,3.5,0.0,81,0.00,OVC,,0.00,464.0,WeatherDisplay:10.37,2013-07-07 17:39:00,
2013-07-07 10:44:00,58.8,53.0,29.81,SSW,198,2.3,2.3,81,0.00,OVC,,0.00,494.0,WeatherDisplay:10.37,2013-07-07 17:44:00,
2013-07-07 10:49:00,59.3,53.1,29.81,South,175,0.0,0.1,80,0.00,OVC,,0.00,629.0,WeatherDisplay:10.37,2013-07-07 17:49:00,
2013-07-07 10:54:00,59.5,53.0,29.81,South,176,3.5,3.5,79,0.00,OVC,,0.00,631.0,WeatherDisplay:10.37,2013-07-07 17:54:00,
2013-07-07 10:59:00,60.0,53.8,29.81,South,176,1.2,0.0,80,0.00,OVC,,0.00,860.0,WeatherDisplay:10.37,2013-07-07 17:59:00,
2013-07-07 11:04:00,60.7,53.8,29.81,South,176,5.8,5.8,78,0.00,OVC,,0.00,882.0,WeatherDisplay:10.37,2013-07-07 18:04:00,
2013-07-07 11:09:00,60.9,53.3,29.81,SSW,213,6.9,6.9,76,0.00,OVC,,0.00,921.0,WeatherDisplay:10.37,2013-07-07 18:09:00,
2013-07-07 11:14:00,60.9,53.6,29.81,SW,222,5.0,5.0,77,0.00,SCT,,0.00,823.0,WeatherDisplay:10.37,2013-07-07 18:14:00,
2013-07-07 11:20:00,61.3,53.7,29.81,SW,215,1.2,1.2,76,0.00,SCT,,0.00,830.0,WeatherDisplay:10.37,2013-07-07 18:20:00,
2013-07-07 11:25:00,62.0,54.0,29.81,SW,215,3.5,0.0,75,0.00,SCT,,0.00,837.0,WeatherDisplay:10.37,2013-07-07 18:25:00,
2013-07-07 11:30:00,62.8,54.4,29.81,SW,215,1.2,1.2,74,0.00,SCT,,0.00,847.0,WeatherDisplay:10.37,2013-07-07 18:30:00,
2013-07-07 11:35:00,63.3,54.5,29.81,SE,130,5.0,5.0,73,0.00,SCT,,0.00,854.0,WeatherDisplay:10.37,2013-07-07 18:35:00,
2013-07-07 11:40:00,63.1,54.3,29.81,SE,126,1.2,0.0,73,0.00,SCT,,0.00,861.0,WeatherDisplay:10.37,2013-07-07 18:40:00,
2013-07-07 11:45:00,63.9,55.1,29.81,South,180,5.8,5.8,73,0.00,SCT,,0.00,868.0,WeatherDisplay:10.37,2013-07-07 18:45:00,
2013-07-07 11:50:00,64.7,54.7,29.80,SE,128,8.1,8.1,70,0.00,SCT,,0.00,877.0,WeatherDisplay:10.37,2013-07-07 18:50:00,
2013-07-07 11:55:00,65.0,55.0,29.80,ESE,108,5.8,5.8,70,0.00,SCT,,0.00,888.0,WeatherDisplay:10.37,2013-07-07 18:55:00,
2013-07-07 12:00:00,65.0,55.4,29.80,SSW,195,6.9,6.9,71,0.00,SCT,,0.00,893.0,WeatherDisplay:10.37,2013-07-07 19:00:00,
2013-07-07 12:05:00,65.6,55.2,29.80,SW,222,5.8,5.8,69,0.00,FEW,,0.00,900.0,WeatherDisplay:10.37,2013-07-07 19:05:00,
2013-07-07 12:10:00,65.9,55.4,29.80,East,95,4.0,4.0,69,0.00,FEW,,0.00,909.0,WeatherDisplay:10.37,2013-07-07 19:10:00,
2013-07-07 12:11:00,66.2,55.7,29.80,SE,146,5.8,5.8,69,0.00,FEW,,0.00,909.0,WeatherDisplay:10.37,2013-07-07 19:11:00,
2013-07-07 12:16:00,66.8,55.9,29.80,South,169,6.0,6.0,68,0.00,FEW,,0.00,916.0,WeatherDisplay:10.37,2013-07-07 19:16:00,
2013-07-07 12:22:00,67.3,55.5,29.80,SE,145,4.6,0.0,66,0.00,FEW,,0.00,919.0,WeatherDisplay:10.37,2013-07-07 19:22:00,
2013-07-07 12:27:00,68.1,55.9,29.80,SSW,205,6.9,6.9,65,0.00,FEW,,0.00,921.0,WeatherDisplay:10.37,2013-07-07 19:27:00,
2013-07-07 12:32:00,68.3,56.1,29.80,SE,146,3.5,3.5,65,0.00,FEW,,0.00,933.0,WeatherDisplay:10.37,2013-07-07 19:32:00,
2013-07-07 12:37:00,69.0,56.3,29.79,WSW,238,8.1,8.1,64,0.00,FEW,,0.00,937.0,WeatherDisplay:10.37,2013-07-07 19:37:00,
2013-07-07 12:42:00,69.6,56.4,29.79,SSE,150,5.8,5.8,63,0.00,FEW,,0.00,939.0,WeatherDisplay:10.37,2013-07-07 19:42:00,
2013-07-07 12:47:00,69.9,56.7,29.79,SW,217,4.6,4.6,63,0.00,FEW,,0.00,942.0,WeatherDisplay:10.37,2013-07-07 19:47:00,
2013-07-07 12:52:00,69.9,56.7,29.79,South,178,5.8,5.8,63,0.00,FEW,,0.00,944.0,WeatherDisplay:10.37,2013-07-07 19:52:00,
2013-07-07 12:57:00,70.4,56.8,29.79,SW,226,5.8,5.8,62,0.00,FEW,,0.00,944.0,WeatherDisplay:10.37,2013-07-07 19:57:00,
2013-07-07 13:02:00,70.9,57.2,29.79,SSW,192,6.9,6.9,62,0.00,FEW,,0.00,944.0,WeatherDisplay:10.37,2013-07-07 20:02:00,
2013-07-07 13:07:00,71.5,56.9,29.79,SSW,210,6.9,6.9,60,0.00,FEW,,0.00,953.0,WeatherDisplay:10.37,2013-07-07 20:07:00,
2013-07-07 13:12:00,71.1,57.0,29.78,South,185,10.4,10.4,61,0.00,CLR,,0.00,949.0,WeatherDisplay:10.37,2013-07-07 20:12:00,
2013-07-07 13:17:00,71.6,57.4,29.78,South,179,5.8,5.8,61,0.00,CLR,,0.00,949.0,WeatherDisplay:10.37,2013-07-07 20:17:00,
2013-07-07 13:22:00,71.9,57.3,29.78,SSE,156,5.8,5.8,60,0.00,CLR,,0.00,951.0,WeatherDisplay:10.37,2013-07-07 20:22:00,
2013-07-07 13:27:00,71.7,57.1,29.78,SSE,157,10.4,10.4,60,0.00,CLR,,0.00,951.0,WeatherDisplay:10.37,2013-07-07 20:27:00,
2013-07-07 13:32:00,72.1,57.0,29.78,WSW,242,6.9,6.9,59,0.00,CLR,,0.00,953.0,WeatherDisplay:10.37,2013-07-07 20:32:00,
2013-07-07 13:37:00,72.4,57.7,29.78,SW,219,6.9,6.9,60,0.00,CLR,,0.00,951.0,WeatherDisplay:10.37,2013-07-07 20:37:00,
2013-07-07 13:42:00,72.4,56.8,29.77,SSW,194,4.6,4.6,58,0.00,CLR,,0.00,951.0,WeatherDisplay:10.37,2013-07-07 20:42:00,
2013-07-07 13:47:00,72.7,58.0,29.77,SE,128,1.2,2.0,60,0.00,CLR,,0.00,951.0,WeatherDisplay:10.37,2013-07-07 20:47:00,
2013-07-07 13:52:00,73.1,57.4,29.77,South,183,8.1,8.1,58,0.00,CLR,,0.00,947.0,WeatherDisplay:10.37,2013-07-07 20:52:00,
2013-07-07 13:57:00,73.5,57.8,29.77,SSE,168,8.1,8.1,58,0.00,CLR,,0.00,944.0,WeatherDisplay:10.37,2013-07-07 20:57:00,
2013-07-07 14:02:00,74.1,57.9,29.77,SSW,200,10.4,10.4,57,0.00,CLR,,0.00,939.0,WeatherDisplay:10.37,2013-07-07 21:02:00,
2013-07-07 14:07:00,74.3,57.6,29.77,SW,230,5.8,5.8,56,0.00,CLR,,0.00,935.0,WeatherDisplay:10.37,2013-07-07 21:07:00,
2013-07-07 14:12:00,74.4,57.7,29.77,SW,226,9.2,9.2,56,0.00,CLR,,0.00,926.0,WeatherDisplay:10.37,2013-07-07 21:12:00,
2013-07-07 14:17:00,74.1,56.9,29.77,SW,236,8.1,8.1,55,0.00,CLR,,0.00,926.0,WeatherDisplay:10.37,2013-07-07 21:17:00,
2013-07-07 14:22:00,74.0,57.8,29.77,South,184,5.8,5.8,57,0.00,CLR,,0.00,921.0,WeatherDisplay:10.37,2013-07-07 21:22:00,
2013-07-07 14:27:00,74.1,57.4,29.77,SSW,198,9.2,9.2,56,0.00,CLR,,0.00,912.0,WeatherDisplay:10.37,2013-07-07 21:27:00,
2013-07-07 14:32:00,73.9,57.2,29.77,SW,215,8.1,8.1,56,0.00,CLR,,0.00,911.0,WeatherDisplay:10.37,2013-07-07 21:32:00,
2013-07-07 14:38:00,73.9,56.7,29.77,South,178,9.2,9.2,55,0.00,CLR,,0.00,902.0,WeatherDisplay:10.37,2013-07-07 21:38:00,
2013-07-07 14:43:00,73.4,57.2,29.77,SE,145,9.0,9.0,57,0.00,CLR,,0.00,896.0,WeatherDisplay:10.37,2013-07-07 21:43:00,
2013-07-07 14:48:00,73.4,57.2,29.77,South,188,4.6,4.6,57,0.00,CLR,,0.00,889.0,WeatherDisplay:10.37,2013-07-07 21:48:00,
2013-07-07 14:53:00,74.0,57.3,29.77,SW,231,11.5,11.5,56,0.00,CLR,,0.00,882.0,WeatherDisplay:10.37,2013-07-07 21:53:00,
2013-07-07 14:58:00,74.0,56.8,29.77,SW,214,8.1,8.1,55,0.00,CLR,,0.00,874.0,WeatherDisplay:10.37,2013-07-07 21:58:00,
2013-07-07 15:03:00,74.3,57.6,29.77,South,172,8.1,8.1,56,0.00,CLR,,0.00,865.0,WeatherDisplay:10.37,2013-07-07 22:03:00,
2013-07-07 15:08:00,74.3,57.1,29.77,South,171,9.2,9.2,55,0.00,CLR,,0.00,856.0,WeatherDisplay:10.37,2013-07-07 22:08:00,
2013-07-07 15:13:00,74.4,57.2,29.77,WSW,252,8.1,8.1,55,0.00,CLR,,0.00,851.0,WeatherDisplay:10.37,2013-07-07 22:13:00,
2013-07-07 15:18:00,74.0,57.3,29.77,South,184,9.2,9.2,56,0.00,CLR,,0.00,838.0,WeatherDisplay:10.37,2013-07-07 22:18:00,
2013-07-07 15:23:00,73.4,56.2,29.77,South,190,11.5,11.5,55,0.00,CLR,,0.00,831.0,WeatherDisplay:10.37,2013-07-07 22:23:00,
2013-07-07 15:28:00,73.2,56.6,29.77,SSW,204,9.2,9.2,56,0.00,CLR,,0.00,821.0,WeatherDisplay:10.37,2013-07-07 22:28:00,
2013-07-07 15:33:00,73.1,56.5,29.77,SW,232,8.1,8.1,56,0.00,CLR,,0.00,812.0,WeatherDisplay:10.37,2013-07-07 22:33:00,
2013-07-07 15:38:00,73.5,56.8,29.77,South,184,9.2,9.2,56,0.00,CLR,,0.00,802.0,WeatherDisplay:10.37,2013-07-07 22:38:00,
2013-07-07 15:43:00,73.3,56.2,29.77,SSW,204,9.2,9.2,55,0.00,CLR,,0.00,795.0,WeatherDisplay:10.37,2013-07-07 22:43:00,
2013-07-07 15:48:00,72.8,56.7,29.77,SW,226,6.9,6.9,57,0.00,CLR,,0.00,782.0,WeatherDisplay:10.37,2013-07-07 22:48:00,
2013-07-07 15:53:00,72.9,56.3,29.77,SSW,213,10.4,10.4,56,0.00,CLR,,0.00,775.0,WeatherDisplay:10.37,2013-07-07 22:53:00,
2013-07-07 15:58:00,73.0,56.9,29.76,SSW,207,8.1,8.1,57,0.00,CLR,,0.00,763.0,WeatherDisplay:10.37,2013-07-07 22:58:00,
2013-07-07 16:03:00,73.3,56.7,29.76,SSW,201,9.2,9.2,56,0.00,CLR,,0.00,752.0,WeatherDisplay:10.37,2013-07-07 23:03:00,
2013-07-07 16:08:00,72.7,56.6,29.76,SSW,198,6.9,6.9,57,0.00,CLR,,0.00,742.0,WeatherDisplay:10.37,2013-07-07 23:08:00,
2013-07-07 16:13:00,72.6,56.5,29.77,SW,221,11.5,11.5,57,0.00,CLR,,0.00,731.0,WeatherDisplay:10.37,2013-07-07 23:13:00,
2013-07-07 16:18:00,71.8,55.7,29.77,South,184,11.5,11.5,57,0.00,CLR,,0.00,717.0,WeatherDisplay:10.37,2013-07-07 23:18:00,
2013-07-07 16:23:00,71.1,55.6,29.77,SW,230,11.5,11.5,58,0.00,CLR,,0.00,707.0,WeatherDisplay:10.37,2013-07-07 23:23:00,
2013-07-07 16:28:00,70.5,55.0,29.77,WSW,245,11.5,11.5,58,0.00,CLR,,0.00,693.0,WeatherDisplay:10.37,2013-07-07 23:28:00,
2013-07-07 16:33:00,70.3,55.3,29.77,SSW,207,11.5,11.5,59,0.00,CLR,,0.00,680.0,WeatherDisplay:10.37,2013-07-07 23:33:00,
2013-07-07 16:38:00,70.3,55.8,29.77,SW,219,9.2,9.2,60,0.00,CLR,,0.00,671.0,WeatherDisplay:10.37,2013-07-07 23:38:00,
2013-07-07 16:43:00,70.5,55.0,29.77,SSE,160,9.2,9.2,58,0.00,CLR,,0.00,657.0,WeatherDisplay:10.37,2013-07-07 23:43:00,
2013-07-07 16:48:00,70.4,55.4,29.76,SW,214,8.1,8.1,59,0.00,CLR,,0.00,647.0,WeatherDisplay:10.37,2013-07-07 23:48:00,
2013-07-07 16:53:00,70.6,55.6,29.76,SW,227,8.1,8.1,59,0.00,CLR,,0.00,633.0,WeatherDisplay:10.37,2013-07-07 23:53:00,
2013-07-07 16:58:00,70.6,54.6,29.77,SSW,200,9.2,9.2,57,0.00,CLR,,0.00,617.0,WeatherDisplay:10.37,2013-07-07 23:58:00,
2013-07-07 17:03:00,69.7,54.3,29.76,SSE,165,10.4,10.4,58,0.00,CLR,,0.00,603.0,WeatherDisplay:10.37,2013-07-08 00:03:00,
2013-07-07 17:08:00,69.2,54.3,29.76,SSW,202,6.9,6.9,59,0.00,CLR,,0.00,591.0,WeatherDisplay:10.37,2013-07-08 00:08:00,
2013-07-07 17:13:00,69.0,54.5,29.76,SSW,211,8.1,8.1,60,0.00,CLR,,0.00,575.0,WeatherDisplay:10.37,2013-07-08 00:13:00,
2013-07-07 17:18:00,68.4,54.4,29.76,SW,225,5.8,5.8,61,0.00,CLR,,0.00,559.0,WeatherDisplay:10.37,2013-07-08 00:18:00,
2013-07-07 17:23:00,68.6,54.6,29.76,South,181,5.8,5.8,61,0.00,CLR,,0.00,545.0,WeatherDisplay:10.37,2013-07-08 00:23:00,
2013-07-07 17:28:00,69.0,54.5,29.76,SSE,154,6.0,6.0,60,0.00,CLR,,0.00,529.0,WeatherDisplay:10.37,2013-07-08 00:28:00,
2013-07-07 17:34:00,68.9,54.4,29.76,South,187,5.8,5.8,60,0.00,CLR,,0.00,517.0,WeatherDisplay:10.37,2013-07-08 00:34:00,
2013-07-07 17:39:00,68.8,54.8,29.76,SW,217,6.9,6.9,61,0.00,CLR,,0.00,501.0,WeatherDisplay:10.37,2013-07-08 00:39:00,
2013-07-07 17:44:00,68.6,54.6,29.76,SSW,203,10.4,10.4,61,0.00,CLR,,0.00,485.0,WeatherDisplay:10.37,2013-07-08 00:44:00,
2013-07-07 17:49:00,68.6,54.2,29.76,WSW,238,4.6,4.6,60,0.00,CLR,,0.00,469.0,WeatherDisplay:10.37,2013-07-08 00:49:00,
2013-07-07 17:54:00,69.2,54.7,29.76,SSE,165,6.9,6.9,60,0.00,CLR,,0.00,454.0,WeatherDisplay:10.37,2013-07-08 00:54:00,
2013-07-07 17:59:00,69.0,55.0,29.76,SW,223,11.5,11.5,61,0.00,CLR,,0.00,439.0,WeatherDisplay:10.37,2013-07-08 00:59:00,
2013-07-07 18:04:00,68.8,54.3,29.76,SW,217,5.8,5.8,60,0.00,CLR,,0.00,422.0,WeatherDisplay:10.37,2013-07-08 01:04:00,
2013-07-07 18:09:00,68.5,54.1,29.76,SW,227,11.5,11.5,60,0.00,CLR,,0.00,406.0,WeatherDisplay:10.37,2013-07-08 01:09:00,
2013-07-07 18:14:00,68.0,54.0,29.76,SSW,198,10.4,10.4,61,0.00,CLR,,0.00,388.0,WeatherDisplay:10.37,2013-07-08 01:14:00,
2013-07-07 18:19:00,67.7,53.8,29.76,SSW,213,8.1,8.1,61,0.00,CLR,,0.00,376.0,WeatherDisplay:10.37,2013-07-08 01:19:00,
2013-07-07 18:24:00,67.1,54.1,29.76,WSW,241,5.8,5.8,63,0.00,CLR,,0.00,359.0,WeatherDisplay:10.37,2013-07-08 01:24:00,
2013-07-07 18:29:00,66.9,53.9,29.77,SW,215,5.8,5.8,63,0.00,CLR,,0.00,343.0,WeatherDisplay:10.37,2013-07-08 01:29:00,
2013-07-07 18:34:00,66.8,54.2,29.77,SW,221,9.2,9.2,64,0.00,CLR,,0.00,325.0,WeatherDisplay:10.37,2013-07-08 01:34:00,
2013-07-07 18:39:00,66.3,53.8,29.77,WSW,241,10.4,10.4,64,0.00,CLR,,0.00,308.0,WeatherDisplay:10.37,2013-07-08 01:39:00,
2013-07-07 18:44:00,65.7,53.6,29.77,SSW,211,9.2,9.2,65,0.00,CLR,,0.00,292.0,WeatherDisplay:10.37,2013-07-08 01:44:00,
2013-07-07 18:49:00,65.2,53.6,29.77,SSW,196,6.9,6.9,66,0.00,CLR,,0.00,274.0,WeatherDisplay:10.37,2013-07-08 01:49:00,
2013-07-07 18:54:00,64.9,53.7,29.77,SSW,210,5.8,5.8,67,0.00,CLR,,0.00,258.0,WeatherDisplay:10.37,2013-07-08 01:54:00,
2013-07-07 18:59:00,64.5,53.7,29.77,SE,137,6.9,6.9,68,0.00,CLR,,0.00,243.0,WeatherDisplay:10.37,2013-07-08 01:59:00,
2013-07-07 19:04:00,64.1,53.7,29.77,ESE,113,6.9,6.9,69,0.00,CLR,,0.00,230.0,WeatherDisplay:10.37,2013-07-08 02:04:00,
2013-07-07 19:09:00,63.9,53.5,29.77,ESE,121,8.1,8.1,69,0.00,CLR,,0.00,214.0,WeatherDisplay:10.37,2013-07-08 02:09:00,
2013-07-07 19:14:00,63.2,53.3,29.77,SSE,147,8.1,8.1,70,0.00,CLR,,0.00,197.0,WeatherDisplay:10.37,2013-07-08 02:14:00,
2013-07-07 19:19:00,62.5,53.0,29.77,SE,126,9.2,9.2,71,0.00,CLR,,0.00,88.0,WeatherDisplay:10.37,2013-07-08 02:19:00,
2013-07-07 19:24:00,62.4,53.3,29.77,SE,132,4.6,4.6,72,0.00,CLR,,0.00,42.0,WeatherDisplay:10.37,2013-07-08 02:24:00,
2013-07-07 19:29:00,62.0,52.9,29.78,South,178,8.1,8.1,72,0.00,CLR,,0.00,42.0,WeatherDisplay:10.37,2013-07-08 02:29:00,
2013-07-07 19:34:00,61.6,52.9,29.78,ESE,113,8.1,8.1,73,0.00,CLR,,0.00,37.0,WeatherDisplay:10.37,2013-07-08 02:34:00,
2013-07-07 19:39:00,60.7,52.4,29.78,ESE,123,10.4,10.4,74,0.00,CLR,,0.00,62.0,WeatherDisplay:10.37,2013-07-08 02:39:00,
2013-07-07 19:44:00,60.3,52.3,29.78,SE,142,8.1,8.1,75,0.00,CLR,,0.00,91.0,WeatherDisplay:10.37,2013-07-08 02:44:00,
2013-07-07 19:49:00,59.3,51.7,29.78,SE,125,8.1,8.1,76,0.00,CLR,,0.00,63.0,WeatherDisplay:10.37,2013-07-08 02:49:00,
2013-07-07 19:54:00,59.0,52.1,29.78,South,179,4.6,4.6,78,0.00,CLR,,0.00,65.0,WeatherDisplay:10.37,2013-07-08 02:54:00,
2013-07-07 19:59:00,58.8,52.0,29.79,South,188,6.9,6.9,78,0.00,CLR,,0.00,23.0,WeatherDisplay:10.37,2013-07-08 02:59:00,
2013-07-07 20:04:00,58.8,52.0,29.79,South,188,6.9,6.9,78,0.00,CLR,,0.00,23.0,WeatherDisplay:10.37,2013-07-08 03:04:00,
2013-07-07 20:10:00,57.8,51.3,29.79,SSE,161,8.1,8.1,79,0.00,CLR,,0.00,19.0,WeatherDisplay:10.37,2013-07-08 03:10:00,
2013-07-07 20:15:00,57.6,51.5,29.79,ESE,122,9.2,9.2,80,0.00,CLR,,0.00,16.0,WeatherDisplay:10.37,2013-07-08 03:15:00,
2013-07-07 20:20:00,57.2,51.1,29.79,SE,144,6.9,6.9,80,0.00,CLR,,0.00,12.0,WeatherDisplay:10.37,2013-07-08 03:20:00,
2013-07-07 20:25:00,56.8,51.0,29.79,SE,130,11.5,11.5,81,0.00,CLR,,0.00,11.0,WeatherDisplay:10.37,2013-07-08 03:25:00,
2013-07-07 20:30:00,56.3,50.9,29.80,SE,142,10.4,10.4,82,0.00,CLR,,0.00,7.0,WeatherDisplay:10.37,2013-07-08 03:30:00,
2013-07-07 20:35:00,56.2,51.1,29.80,SE,134,1.2,1.8,83,0.00,CLR,,0.00,5.0,WeatherDisplay:10.37,2013-07-08 03:35:00,
2013-07-07 20:40:00,55.9,50.8,29.80,SE,138,11.5,11.5,83,0.00,CLR,,0.00,0.0,WeatherDisplay:10.37,2013-07-08 03:40:00,
2013-07-07 20:45:00,55.8,50.7,29.80,SSE,160,6.9,6.9,83,0.00,CLR,,0.00,0.0,WeatherDisplay:10.37,2013-07-08 03:45:00,
2013-07-07 20:50:00,55.6,50.8,29.80,SSE,151,10.4,10.4,84,0.00,CLR,,0.00,0.0,WeatherDisplay:10.37,2013-07-08 03:50:00,
2013-07-07 20:55:00,55.4,50.6,29.80,SSE,167,8.1,8.1,84,0.00,CLR,,0.00,0.0,WeatherDisplay:10.37,2013-07-08 03:55:00,
2013-07-07 21:00:00,55.3,50.5,29.80,ESE,122,9.2,9.2,84,0.00,CLR,,0.00,0.0,WeatherDisplay:10.37,2013-07-08 04:00:00,
2013-07-07 21:01:00,55.2,50.4,29.80,SSE,163,9.2,9.2,84,0.00,CLR,,0.00,0.0,WeatherDisplay:10.37,2013-07-08 04:01:00,
2013-07-07 21:06:00,55.1,50.7,29.81,SSE,156,8.1,8.1,85,0.00,CLR,,0.00,0.0,WeatherDisplay:10.37,2013-07-08 04:06:00,
2013-07-07 21:11:00,55.0,50.6,29.81,SE,142,10.4,10.4,85,0.00,CLR,,0.00,0.0,WeatherDisplay:10.37,2013-07-08 04:11:00,
2013-07-07 21:16:00,54.9,50.5,29.81,ESE,113,8.1,8.1,85,0.00,CLR,,0.00,0.0,WeatherDisplay:10.37,2013-07-08 04:16:00,
2013-07-07 21:21:00,54.8,50.4,29.81,ESE,121,2.0,2.0,85,0.00,CLR,,0.00,0.0,WeatherDisplay:10.37,2013-07-08 04:21:00,
2013-07-07 21:26:00,54.8,50.4,29.82,SE,146,7.0,7.0,85,0.00,CLR,,0.00,0.0,WeatherDisplay:10.37,2013-07-08 04:26:00,
2013-07-07 21:31:00,54.8,50.7,29.82,SSE,165,3.5,3.5,86,0.00,CLR,,0.00,0.0,WeatherDisplay:10.37,2013-07-08 04:31:00,
2013-07-07 21:36:00,54.6,50.5,29.82,SSE,160,8.1,8.1,86,0.00,CLR,,0.00,0.0,WeatherDisplay:10.37,2013-07-08 04:36:00,
2013-07-07 21:41:00,54.5,50.4,29.82,SE,138,5.8,5.8,86,0.00,CLR,,0.00,0.0,WeatherDisplay:10.37,2013-07-08 04:41:00,
2013-07-07 21:46:00,54.4,50.3,29.82,South,175,3.5,3.5,86,0.00,CLR,,0.00,0.0,WeatherDisplay:10.37,2013-07-08 04:46:00,
2013-07-07 21:51:00,54.4,50.3,29.82,SSE,153,6.9,6.9,86,0.00,CLR,,0.00,0.0,WeatherDisplay:10.37,2013-07-08 04:51:00,
2013-07-07 21:57:00,54.3,50.2,29.82,ESE,122,6.9,6.9,86,0.00,CLR,,0.00,0.0,WeatherDisplay:10.37,2013-07-08 04:57:00,
2013-07-07 22:02:00,54.3,50.5,29.83,SSE,152,3.5,4.0,87,0.00,CLR,,0.00,0.0,WeatherDisplay:10.37,2013-07-08 05:02:00,
2013-07-07 22:07:00,54.4,50.6,29.83,SSE,148,5.8,5.8,87,0.00,CLR,,0.00,0.0,WeatherDisplay:10.37,2013-07-08 05:07:00,
2013-07-07 22:12:00,54.4,50.6,29.83,SE,133,5.8,5.8,87,0.00,SCT,,0.00,0.0,WeatherDisplay:10.37,2013-07-08 05:12:00,
2013-07-07 22:17:00,54.4,50.6,29.83,SSE,163,1.2,0.0,87,0.00,SCT,,0.00,0.0,WeatherDisplay:10.37,2013-07-08 05:17:00,
2013-07-07 22:22:00,54.4,50.6,29.83,ESE,121,4.6,4.6,87,0.00,SCT,,0.00,0.0,WeatherDisplay:10.37,2013-07-08 05:22:00,
2013-07-07 22:27:00,54.5,50.7,29.83,ESE,122,1.2,0.0,87,0.00,SCT,,0.00,0.0,WeatherDisplay:10.37,2013-07-08 05:27:00,
2013-07-07 22:32:00,54.4,50.6,29.83,SSW,209,1.2,0.0,87,0.00,BKN,,0.00,0.0,WeatherDisplay:10.37,2013-07-08 05:32:00,
2013-07-07 22:37:00,54.2,50.4,29.83,SSW,209,3.5,3.5,87,0.00,BKN,,0.00,0.0,WeatherDisplay:10.37,2013-07-08 05:37:00,
2013-07-07 22:42:00,54.2,50.4,29.83,SSW,207,4.0,4.0,87,0.00,BKN,,0.00,0.0,WeatherDisplay:10.37,2013-07-08 05:42:00,
2013-07-07 22:47:00,54.2,50.4,29.83,SSW,194,4.6,4.6,87,0.00,BKN,,0.00,0.0,WeatherDisplay:10.37,2013-07-08 05:47:00,
2013-07-07 22:52:00,54.2,50.4,29.83,SSW,202,2.3,2.3,87,0.00,BKN,,0.00,0.0,WeatherDisplay:10.37,2013-07-08 05:52:00,
2013-07-07 22:57:00,54.2,50.4,29.83,SSE,155,4.6,4.6,87,0.00,BKN,,0.00,0.0,WeatherDisplay:10.37,2013-07-08 05:57:00,
2013-07-07 23:02:00,54.1,50.3,29.83,SSE,155,1.0,0.0,87,0.00,BKN,,0.00,0.0,WeatherDisplay:10.37,2013-07-08 06:02:00,
2013-07-07 23:07:00,54.0,50.2,29.83,SSW,192,3.5,3.5,87,0.00,BKN,,0.00,0.0,WeatherDisplay:10.37,2013-07-08 06:07:00,
2013-07-07 23:12:00,54.0,50.2,29.83,SSW,192,0.0,0.0,87,0.00,OVC,,0.00,0.0,WeatherDisplay:10.37,2013-07-08 06:12:00,
2013-07-07 23:17:00,54.1,50.3,29.83,South,183,3.5,0.0,87,0.00,OVC,,0.00,0.0,WeatherDisplay:10.37,2013-07-08 06:17:00,
2013-07-07 23:22:00,54.0,50.2,29.83,South,182,0.0,0.0,87,0.00,OVC,,0.00,0.0,WeatherDisplay:10.37,2013-07-08 06:22:00,
2013-07-07 23:27:00,54.0,50.2,29.83,South,178,3.5,3.5,87,0.00,OVC,,0.00,0.0,WeatherDisplay:10.37,2013-07-08 06:27:00,
2013-07-07 23:32:00,54.0,50.2,29.83,ESE,122,6.9,6.9,87,0.00,OVC,,0.00,0.0,WeatherDisplay:10.37,2013-07-08 06:32:00,
2013-07-07 23:37:00,53.9,50.4,29.83,ESE,123,4.0,4.0,88,0.00,OVC,,0.00,0.0,WeatherDisplay:10.37,2013-07-08 06:37:00,
2013-07-07 23:42:00,53.8,50.3,29.83,SE,126,0.0,0.8,88,0.00,OVC,,0.00,0.0,WeatherDisplay:10.37,2013-07-08 06:42:00,
2013-07-07 23:47:00,53.8,50.3,29.83,SE,129,3.5,3.5,88,0.00,OVC,,0.00,0.0,WeatherDisplay:10.37,2013-07-08 06:47:00,
2013-07-07 23:52:00,53.8,50.3,29.83,SE,130,0.0,0.8,88,0.00,OVC,,0.00,0.0,WeatherDisplay:10.37,2013-07-08 06:52:00,
2013-07-07 23:57:00,53.7,50.2,29.84,SE,131,1.2,2.0,88,0.00,OVC,,0.00,0.0,WeatherDisplay:10.37,2013-07-08 06:57:00,